createdAt,value
2022-10-11T00:00:00.947Z,96.74
2022-10-11T00:02:28.111Z,97.10
2022-10-11T00:04:57.462Z,98.45
2022-10-11T00:07:24.305Z,99.64
2022-10-11T00:09:51.146Z,97.39
2022-10-11T00:12:18.259Z,98.57
2022-10-11T00:14:45.082Z,99.25
2022-10-11T00:17:11.930Z,99.23
2022-10-11T00:19:39.038Z,98.72
2022-10-11T00:22:05.941Z,98.78
2022-10-11T00:24:32.810Z,98.50
2022-10-11T00:26:59.921Z,100.00
2022-10-11T00:29:26.819Z,100.00
2022-10-11T00:31:53.682Z,100.00
2022-10-11T00:34:20.773Z,99.37
2022-10-11T00:36:48.638Z,100.00
2022-10-11T00:39:15.539Z,100.00
2022-10-11T00:41:42.646Z,100.00
2022-10-11T00:44:11.754Z,100.00
2022-10-11T00:46:40.767Z,100.00
2022-10-11T00:49:44.234Z,100.00
2022-10-11T00:52:19.786Z,100.00
2022-10-11T00:54:47.810Z,100.00
2022-10-11T00:57:19.397Z,100.00
2022-10-11T00:59:50.966Z,100.00
2022-10-11T01:02:18.480Z,100.00
2022-10-11T01:04:45.443Z,100.00
2022-10-11T01:07:12.973Z,100.00
2022-10-11T01:09:39.929Z,100.00
2022-10-11T01:12:13.946Z,100.00
2022-10-11T01:15:02.969Z,100.00
2022-10-11T01:17:41.137Z,100.00
2022-10-11T01:20:20.719Z,100.00
2022-10-11T01:22:56.458Z,100.00
2022-10-11T01:25:29.594Z,100.00
2022-10-11T01:28:08.390Z,100.00
2022-10-11T01:30:36.977Z,100.00
2022-10-11T01:33:15.794Z,100.00
2022-10-11T01:35:49.191Z,100.00
2022-10-11T01:38:38.251Z,100.00
2022-10-11T01:41:13.284Z,100.00
2022-10-11T01:43:41.429Z,100.00
2022-10-11T01:46:09.609Z,100.00
2022-10-11T01:48:56.920Z,100.00
2022-10-11T01:51:34.006Z,100.00
2022-10-11T01:54:19.179Z,100.00
2022-10-11T01:57:15.641Z,100.00
2022-10-11T02:00:18.512Z,100.00
2022-10-11T02:03:07.331Z,100.00
2022-10-11T02:06:00.010Z,100.00
2022-10-11T02:09:09.308Z,100.00
2022-10-11T02:11:36.535Z,100.00
2022-10-11T02:14:09.593Z,100.00
2022-10-11T02:16:45.177Z,99.31
2022-10-11T02:19:13.610Z,98.21
2022-10-11T02:21:43.131Z,98.93
2022-10-11T02:24:15.027Z,100.00
2022-10-11T02:26:43.919Z,100.00
2022-10-11T02:29:12.476Z,99.43
2022-10-11T02:31:39.757Z,100.00
2022-10-11T02:34:16.922Z,99.80
2022-10-11T02:36:52.751Z,100.00
2022-10-11T02:39:31.355Z,100.00
2022-10-11T02:42:00.251Z,100.00
2022-10-11T02:44:43.035Z,100.00
2022-10-11T02:47:10.084Z,100.00
2022-10-11T02:49:37.184Z,100.00
2022-10-11T02:52:05.900Z,100.00
2022-10-11T02:54:32.817Z,100.00
2022-10-11T02:56:59.931Z,100.00
2022-10-11T02:59:26.771Z,100.00
2022-10-11T03:01:53.713Z,100.00
2022-10-11T03:04:20.904Z,100.00
2022-10-11T03:06:47.761Z,100.00
2022-10-11T03:09:14.630Z,100.00
2022-10-11T03:11:41.729Z,100.00
2022-10-11T03:14:08.603Z,100.00
2022-10-11T03:16:35.452Z,100.00
2022-10-11T03:19:02.573Z,100.00
2022-10-11T03:21:29.442Z,100.00
2022-10-11T03:23:56.270Z,100.00
2022-10-11T03:26:23.456Z,100.00
2022-10-11T03:28:50.353Z,100.00
2022-10-11T03:31:21.840Z,100.00
2022-10-11T03:33:48.957Z,100.00
2022-10-11T03:36:16.138Z,100.00
2022-10-11T03:38:43.059Z,100.00
2022-10-11T03:41:10.168Z,100.00
2022-10-11T03:43:37.160Z,100.00
2022-10-11T03:46:04.394Z,100.00
2022-10-11T03:48:31.665Z,100.00
2022-10-11T03:50:58.497Z,100.00
2022-10-11T03:53:25.362Z,100.00
2022-10-11T03:55:54.340Z,100.00
2022-10-11T03:58:22.003Z,100.00
2022-10-11T04:00:49.190Z,100.00
2022-10-11T04:03:16.320Z,100.00
2022-10-11T04:05:43.165Z,100.00
2022-10-11T04:08:12.387Z,100.00
2022-10-11T04:10:40.080Z,100.00
2022-10-11T04:13:07.445Z,100.00
2022-10-11T04:15:34.329Z,100.00
2022-10-11T04:18:01.738Z,100.00
2022-10-11T04:20:28.586Z,100.00
2022-10-11T04:22:55.427Z,100.00
2022-10-11T04:25:22.511Z,100.00
2022-10-11T04:27:49.351Z,100.00
2022-10-11T04:30:16.607Z,100.00
2022-10-11T04:32:43.755Z,100.00
2022-10-11T04:35:11.212Z,100.00
2022-10-11T04:37:38.066Z,100.00
2022-10-11T04:40:06.821Z,100.00
2022-10-11T04:42:34.453Z,100.00
2022-10-11T04:45:01.371Z,100.00
2022-10-11T04:47:28.502Z,100.00
2022-10-11T04:49:55.351Z,100.00
2022-10-11T04:52:25.576Z,98.67
2022-10-11T04:54:53.137Z,99.35
2022-10-11T04:57:20.002Z,96.13
2022-10-11T04:59:50.145Z,96.37
2022-10-11T05:02:17.513Z,97.67
2022-10-11T05:04:44.739Z,98.13
2022-10-11T05:07:11.608Z,100.00
2022-10-11T05:09:38.705Z,99.01
2022-10-11T05:12:05.941Z,98.67
2022-10-11T05:14:32.800Z,100.00
2022-10-11T05:16:59.930Z,100.00
2022-10-11T05:19:26.813Z,99.44
2022-10-11T05:21:55.066Z,100.00
2022-10-11T05:24:22.200Z,98.82
2022-10-11T05:26:49.507Z,99.15
2022-10-11T05:29:16.350Z,99.22
2022-10-11T05:31:43.457Z,98.46
2022-10-11T05:34:10.303Z,97.77
2022-10-11T05:36:37.234Z,97.44
2022-10-11T05:39:04.506Z,96.08
2022-10-11T05:41:31.497Z,96.98
2022-10-11T05:43:58.377Z,96.52
2022-10-11T05:46:25.484Z,97.01
2022-10-11T05:48:55.141Z,97.08
2022-10-11T05:51:21.978Z,95.46
2022-10-11T05:53:49.285Z,94.98
2022-10-11T05:56:23.365Z,96.63
2022-10-11T05:58:52.598Z,96.69
2022-10-11T06:01:27.042Z,95.90
2022-10-11T06:03:57.310Z,95.21
2022-10-11T06:06:27.200Z,95.86
2022-10-11T06:08:57.177Z,95.26
2022-10-11T06:11:34.876Z,94.40
2022-10-11T06:14:05.863Z,92.40
2022-10-11T06:16:32.741Z,92.04
2022-10-11T06:18:59.609Z,91.40
2022-10-11T06:21:26.757Z,90.40
2022-10-11T06:23:59.862Z,91.30
2022-10-11T06:26:29.095Z,88.18
2022-10-11T06:28:56.449Z,84.08
2022-10-11T06:31:26.474Z,74.40
2022-10-11T06:33:56.516Z,67.87
2022-10-11T06:36:26.175Z,67.15
2022-10-11T06:38:56.446Z,66.22
2022-10-11T06:41:26.214Z,63.16
2022-10-11T06:43:56.872Z,60.47
2022-10-11T06:46:27.242Z,60.35
2022-10-11T06:48:57.522Z,57.00
2022-10-11T06:51:28.644Z,56.01
2022-10-11T06:54:00.073Z,55.26
2022-10-11T06:56:31.255Z,52.91
2022-10-11T06:58:59.392Z,50.26
2022-10-11T07:01:26.719Z,49.40
2022-10-11T07:03:58.220Z,51.53
2022-10-11T07:06:28.952Z,51.27
2022-10-11T07:09:00.350Z,53.63
2022-10-11T07:11:28.233Z,55.17
2022-10-11T07:14:00.166Z,57.38
2022-10-11T07:16:28.071Z,58.06
2022-10-11T07:19:00.562Z,58.78
2022-10-11T07:21:28.924Z,59.15
2022-10-11T07:23:55.858Z,59.58
2022-10-11T07:26:25.849Z,59.17
2022-10-11T07:28:55.833Z,60.69
2022-10-11T07:31:24.908Z,61.30
2022-10-11T07:33:54.117Z,61.99
2022-10-11T07:36:24.201Z,61.46
2022-10-11T07:38:53.563Z,60.11
2022-10-11T07:41:20.732Z,58.32
2022-10-11T07:43:51.072Z,57.51
2022-10-11T07:46:20.435Z,55.31
2022-10-11T07:48:47.639Z,53.73
2022-10-11T07:51:20.288Z,52.72
2022-10-11T07:53:49.518Z,51.96
2022-10-11T07:56:19.440Z,51.36
2022-10-11T07:58:53.750Z,50.12
2022-10-11T08:01:22.552Z,50.03
2022-10-11T08:03:50.274Z,51.36
2022-10-11T08:06:20.469Z,53.16
2022-10-11T08:08:47.376Z,54.53
2022-10-11T08:11:25.825Z,54.97
2022-10-11T08:13:55.851Z,52.73
2022-10-11T08:16:25.980Z,53.93
2022-10-11T08:18:56.991Z,54.79
2022-10-11T08:21:27.179Z,55.99
2022-10-11T08:24:14.064Z,53.08
2022-10-11T08:27:00.953Z,55.11
2022-10-11T08:29:47.603Z,56.10
2022-10-11T08:32:34.561Z,58.35
2022-10-11T08:35:21.249Z,58.76
2022-10-11T08:38:08.182Z,59.00
2022-10-11T08:40:56.917Z,57.20
2022-10-11T08:43:57.952Z,56.82
2022-10-11T08:47:00.450Z,56.77
2022-10-11T08:49:47.642Z,56.87
2022-10-11T08:53:06.567Z,56.44
2022-10-11T08:55:45.061Z,58.37
2022-10-11T08:58:15.820Z,56.77
2022-10-11T09:00:44.795Z,54.71
2022-10-11T09:03:34.229Z,53.19
2022-10-11T09:06:20.403Z,51.38
2022-10-11T09:09:32.866Z,48.62
2022-10-11T09:12:05.763Z,48.49
2022-10-11T09:14:38.604Z,53.65
2022-10-11T09:17:14.762Z,50.25
2022-10-11T09:19:57.405Z,47.99
2022-10-11T09:22:37.915Z,47.30
2022-10-11T09:25:24.703Z,48.85
2022-10-11T09:28:03.601Z,45.92
2022-10-11T09:30:32.114Z,47.61
2022-10-11T09:33:12.523Z,46.59
2022-10-11T09:35:46.622Z,51.63
2022-10-11T09:38:18.241Z,54.78
2022-10-11T09:41:25.832Z,56.57
2022-10-11T09:43:55.961Z,58.64
2022-10-11T09:46:36.867Z,59.14
2022-10-11T09:49:08.197Z,61.01
2022-10-11T09:51:35.102Z,62.30
2022-10-11T09:54:05.283Z,66.00
2022-10-11T09:56:34.375Z,65.31
2022-10-11T09:59:08.852Z,66.03
2022-10-11T10:01:36.414Z,68.12
2022-10-11T10:04:12.423Z,66.02
2022-10-11T10:06:40.089Z,64.14
2022-10-11T10:09:26.229Z,66.29
2022-10-11T10:11:55.016Z,65.86
2022-10-11T10:14:25.659Z,66.17
2022-10-11T10:17:00.897Z,67.27
2022-10-11T10:19:28.536Z,65.21
2022-10-11T10:21:56.124Z,64.44
2022-10-11T10:24:38.380Z,65.50
2022-10-11T10:27:14.288Z,65.40
2022-10-11T10:29:41.696Z,62.67
2022-10-11T10:32:15.492Z,62.52
2022-10-11T10:35:10.557Z,62.56
2022-10-11T10:37:48.646Z,60.68
2022-10-11T10:40:23.354Z,59.28
2022-10-11T10:42:51.098Z,59.38
2022-10-11T10:45:21.502Z,59.36
2022-10-11T10:49:11.764Z,58.53
2022-10-11T10:51:38.325Z,58.18
2022-10-11T10:54:12.008Z,58.26
2022-10-11T10:57:00.119Z,59.08
2022-10-11T10:59:52.343Z,58.22
2022-10-11T11:02:39.564Z,58.83
2022-10-11T11:05:22.803Z,60.25
2022-10-11T11:08:08.365Z,59.15
2022-10-11T11:10:53.157Z,58.09
2022-10-11T11:13:23.205Z,58.81
2022-10-11T11:16:12.184Z,58.46
2022-10-11T11:18:54.404Z,58.56
2022-10-11T11:21:59.206Z,58.44
2022-10-11T11:24:47.179Z,60.29
2022-10-11T11:27:35.302Z,60.12
2022-10-11T11:30:09.699Z,62.05
2022-10-11T11:33:02.364Z,62.23
2022-10-11T11:35:37.117Z,59.80
2022-10-11T11:38:23.048Z,59.48
2022-10-11T11:40:55.796Z,60.00
2022-10-11T11:43:36.601Z,62.52
2022-10-11T11:46:16.275Z,62.58
2022-10-11T11:48:43.610Z,63.16
2022-10-11T11:51:21.658Z,61.82
2022-10-11T11:54:17.650Z,61.92
2022-10-11T11:57:04.471Z,62.65
2022-10-11T11:59:33.978Z,61.25
2022-10-11T12:02:21.253Z,61.11
2022-10-11T12:04:49.356Z,59.93
2022-10-11T12:07:18.915Z,61.28
2022-10-11T12:09:50.636Z,61.83
2022-10-11T12:12:34.026Z,60.93
2022-10-11T12:15:10.211Z,60.32
2022-10-11T12:17:59.147Z,59.96
2022-10-11T12:20:33.315Z,60.53
2022-10-11T12:23:10.242Z,60.19
2022-10-11T12:25:41.879Z,60.02
2022-10-11T12:28:37.004Z,59.60
2022-10-11T12:31:06.776Z,59.64
2022-10-11T12:33:33.960Z,58.92
2022-10-11T12:36:40.126Z,59.37
2022-10-11T12:39:22.777Z,60.30
2022-10-11T12:41:55.557Z,59.17
2022-10-11T12:44:26.297Z,59.78
2022-10-11T12:46:57.654Z,58.42
2022-10-11T12:49:33.990Z,60.54
2022-10-11T12:52:20.243Z,61.01
2022-10-11T12:55:06.040Z,60.38
2022-10-11T12:57:51.514Z,61.09
2022-10-11T13:00:29.963Z,60.64
2022-10-11T13:03:00.432Z,60.98
2022-10-11T13:05:36.800Z,61.54
2022-10-11T13:08:05.619Z,61.56
2022-10-11T13:10:42.489Z,61.63
2022-10-11T13:13:25.692Z,61.50
2022-10-11T13:15:54.353Z,61.62
2022-10-11T13:18:24.354Z,61.34
2022-10-11T13:20:51.240Z,60.59
2022-10-11T13:23:37.517Z,61.51
2022-10-11T13:26:25.869Z,61.18
2022-10-11T13:29:17.942Z,60.45
2022-10-11T13:31:48.280Z,59.61
2022-10-11T13:34:17.659Z,59.74
2022-10-11T13:36:48.019Z,59.83
2022-10-11T13:39:34.634Z,59.55
2022-10-11T13:42:07.617Z,58.81
2022-10-11T13:44:36.795Z,60.23
2022-10-11T13:47:03.985Z,59.98
2022-10-11T13:49:40.039Z,60.04
2022-10-11T13:52:21.056Z,60.08
2022-10-11T13:55:18.051Z,59.66
2022-10-11T13:57:46.917Z,59.42
2022-10-11T14:00:19.843Z,58.36
2022-10-11T14:02:52.579Z,58.40
2022-10-11T14:05:34.775Z,57.68
2022-10-11T14:08:30.155Z,58.21
2022-10-11T14:11:01.297Z,58.02
2022-10-11T14:13:36.715Z,58.76
2022-10-11T14:16:09.698Z,59.80
2022-10-11T14:18:36.877Z,58.97
2022-10-11T14:21:18.971Z,59.51
2022-10-11T14:24:18.257Z,60.04
2022-10-11T14:26:50.207Z,61.03
2022-10-11T14:29:34.886Z,61.82
2022-10-11T14:32:05.141Z,62.23
2022-10-11T14:34:32.444Z,61.17
2022-10-11T14:36:59.371Z,61.79
2022-10-11T14:39:28.379Z,61.19
2022-10-11T14:41:55.531Z,62.66
2022-10-11T14:44:22.709Z,63.22
2022-10-11T14:46:54.031Z,63.06
2022-10-11T14:49:26.537Z,62.48
2022-10-11T14:51:55.395Z,62.98
2022-10-11T14:54:23.725Z,62.55
2022-10-11T14:56:54.919Z,63.20
2022-10-11T14:59:24.529Z,63.43
2022-10-11T15:01:53.797Z,63.95
2022-10-11T15:04:22.364Z,64.83
2022-10-11T15:06:49.880Z,65.44
2022-10-11T15:09:17.335Z,65.44
2022-10-11T15:11:44.183Z,66.37
2022-10-11T15:14:11.029Z,66.73
2022-10-11T15:16:39.974Z,67.00
2022-10-11T15:19:09.997Z,67.98
2022-10-11T15:21:36.869Z,68.54
2022-10-11T15:24:04.006Z,68.67
2022-10-11T15:26:30.935Z,69.02
2022-10-11T15:29:00.660Z,68.33
2022-10-11T15:31:27.816Z,68.73
2022-10-11T15:33:59.708Z,69.73
2022-10-11T15:36:29.632Z,70.15
2022-10-11T15:39:00.079Z,70.45
2022-10-11T15:41:29.832Z,70.91
2022-10-11T15:44:00.362Z,71.63
2022-10-11T15:46:27.206Z,71.93
2022-10-11T15:48:56.815Z,72.23
2022-10-11T15:51:28.428Z,72.43
2022-10-11T15:53:58.105Z,72.27
2022-10-11T15:56:32.906Z,72.06
2022-10-11T15:59:00.703Z,72.10
2022-10-11T16:01:27.883Z,72.16
2022-10-11T16:03:55.088Z,71.98
2022-10-11T16:06:22.061Z,71.72
2022-10-11T16:08:51.606Z,72.30
2022-10-11T16:11:18.726Z,72.65
2022-10-11T16:13:45.557Z,73.27
2022-10-11T16:16:12.871Z,74.69
2022-10-11T16:18:40.133Z,75.51
2022-10-11T16:21:10.146Z,75.15
2022-10-11T16:23:37.802Z,74.65
2022-10-11T16:26:08.192Z,75.26
2022-10-11T16:28:35.894Z,75.78
2022-10-11T16:31:07.950Z,76.04
2022-10-11T16:33:35.390Z,76.96
2022-10-11T16:36:28.895Z,78.25
2022-10-11T16:38:59.667Z,80.63
2022-10-11T16:41:29.603Z,81.75
2022-10-11T16:43:59.887Z,83.08
2022-10-11T16:46:29.646Z,85.21
2022-10-11T16:49:00.113Z,85.89
2022-10-11T16:51:26.993Z,86.35
2022-10-11T16:53:56.744Z,87.49
2022-10-11T16:56:27.307Z,88.05
2022-10-11T16:58:57.106Z,87.90
2022-10-11T17:01:27.959Z,87.74
2022-10-11T17:03:58.171Z,88.12
2022-10-11T17:06:28.545Z,88.83
2022-10-11T17:08:55.446Z,89.34
2022-10-11T17:11:24.383Z,89.92
2022-10-11T17:13:53.343Z,90.12
2022-10-11T17:16:22.199Z,90.14
2022-10-11T17:18:49.353Z,90.29
2022-10-11T17:21:17.795Z,90.58
2022-10-11T17:23:45.050Z,90.99
2022-10-11T17:26:20.718Z,91.37
2022-10-11T17:28:47.987Z,91.34
2022-10-11T17:31:15.131Z,91.55
2022-10-11T17:33:42.438Z,90.86
2022-10-11T17:36:34.457Z,91.21
2022-10-11T17:39:03.094Z,91.14
2022-10-11T17:41:32.216Z,90.21
2022-10-11T17:43:59.866Z,89.42
2022-10-11T17:46:28.114Z,89.39
2022-10-11T17:48:59.795Z,89.27
2022-10-11T17:51:27.401Z,89.00
2022-10-11T17:53:57.647Z,88.70
2022-10-11T17:56:33.711Z,88.76
2022-10-11T17:59:03.657Z,88.97
2022-10-11T18:01:30.825Z,89.65
2022-10-11T18:04:00.069Z,90.63
2022-10-11T18:06:30.300Z,90.46
2022-10-11T18:09:00.262Z,91.26
2022-10-11T18:11:27.117Z,90.94
2022-10-11T18:13:57.124Z,90.81
2022-10-11T18:16:28.951Z,90.54
2022-10-11T18:18:59.015Z,90.84
2022-10-11T18:21:34.247Z,90.83
2022-10-11T18:24:03.721Z,91.44
2022-10-11T18:26:31.203Z,92.17
2022-10-11T18:28:58.758Z,92.04
2022-10-11T18:31:30.380Z,92.00
2022-10-11T18:33:57.735Z,92.19
2022-10-11T18:36:28.891Z,92.61
2022-10-11T18:38:58.643Z,92.97
2022-10-11T18:41:31.896Z,93.46
2022-10-11T18:44:04.384Z,93.52
2022-10-11T18:46:31.831Z,93.84
2022-10-11T18:49:01.228Z,94.88
2022-10-11T18:51:33.500Z,94.73
2022-10-11T18:54:01.166Z,95.02
2022-10-11T18:56:29.511Z,95.78
2022-10-11T18:58:57.276Z,97.23
2022-10-11T19:01:31.931Z,98.38
2022-10-11T19:04:00.552Z,99.48
2022-10-11T19:06:30.362Z,100.00
2022-10-11T19:09:05.695Z,100.00
2022-10-11T19:11:33.261Z,100.00
2022-10-11T19:14:02.517Z,100.00
2022-10-11T19:16:29.955Z,100.00
2022-10-11T19:18:57.426Z,100.00
2022-10-11T19:21:27.402Z,100.00
2022-10-11T19:23:57.427Z,100.00
2022-10-11T19:26:29.117Z,100.00
2022-10-11T19:29:04.487Z,100.00
2022-10-11T19:31:32.600Z,100.00
2022-10-11T19:34:00.675Z,100.00
2022-10-11T19:36:31.383Z,100.00
2022-10-11T19:39:01.296Z,100.00
2022-10-11T19:41:28.439Z,100.00
2022-10-11T19:43:57.950Z,100.00
2022-10-11T19:46:49.893Z,100.00
2022-10-11T19:49:17.599Z,100.00
2022-10-11T19:51:44.863Z,100.00
2022-10-11T19:54:13.707Z,100.00
2022-10-11T19:56:41.184Z,100.00
2022-10-11T19:59:08.575Z,100.00
2022-10-11T20:01:36.287Z,100.00
2022-10-11T20:04:08.345Z,100.00
2022-10-11T20:06:38.631Z,100.00
2022-10-11T20:11:54.110Z,100.00
2022-10-11T20:14:21.307Z,100.00
2022-10-11T20:16:50.135Z,100.00
2022-10-11T20:19:17.286Z,100.00
2022-10-11T20:21:45.120Z,100.00
2022-10-11T20:24:12.178Z,100.00
2022-10-11T20:26:39.382Z,100.00
2022-10-11T20:29:07.182Z,100.00
2022-10-11T20:31:35.014Z,100.00
2022-10-11T20:34:04.242Z,100.00
2022-10-11T20:36:32.468Z,100.00
2022-10-11T20:39:00.001Z,100.00
2022-10-11T20:41:33.004Z,100.00
2022-10-11T20:44:01.364Z,100.00
2022-10-11T20:46:31.282Z,100.00
2022-10-11T20:49:03.426Z,100.00
2022-10-11T20:51:31.745Z,100.00
2022-10-11T20:53:59.168Z,100.00
2022-10-11T20:56:29.775Z,100.00
2022-10-11T20:58:58.219Z,100.00
2022-10-11T21:01:34.397Z,100.00
2022-10-11T21:04:01.963Z,100.00
2022-10-11T21:06:29.981Z,100.00
2022-10-11T21:09:00.447Z,100.00
2022-10-11T21:11:33.314Z,100.00
2022-10-11T21:14:02.319Z,100.00
2022-10-11T21:16:30.080Z,100.00
2022-10-11T21:18:58.665Z,100.00
2022-10-11T21:21:29.356Z,100.00
2022-10-11T21:24:01.059Z,100.00
2022-10-11T21:26:30.994Z,100.00
2022-10-11T21:29:03.900Z,100.00
2022-10-11T21:31:34.095Z,100.00
2022-10-11T21:34:02.287Z,100.00
2022-10-11T21:36:29.157Z,100.00
2022-10-11T21:38:56.349Z,100.00
2022-10-11T21:41:29.957Z,100.00
2022-10-11T21:43:59.940Z,100.00
2022-10-11T21:49:18.596Z,100.00
2022-10-11T21:51:45.698Z,100.00
2022-10-11T21:54:12.549Z,100.00
2022-10-11T21:56:39.412Z,100.00
2022-10-11T21:59:09.510Z,100.00
2022-10-11T22:01:39.557Z,100.00
2022-10-11T22:04:09.568Z,100.00
2022-10-11T22:06:37.354Z,100.00
2022-10-11T22:09:05.006Z,100.00
2022-10-11T22:11:32.126Z,100.00
2022-10-11T22:13:59.061Z,100.00
2022-10-11T22:16:25.940Z,100.00
2022-10-11T22:18:56.199Z,100.00
2022-10-11T22:21:27.077Z,100.00
2022-10-11T22:23:57.676Z,100.00
2022-10-11T22:26:32.137Z,100.00
2022-10-11T22:29:02.111Z,100.00
2022-10-11T22:31:29.387Z,100.00
2022-10-11T22:34:00.035Z,100.00
2022-10-11T22:36:28.213Z,100.00
2022-10-11T22:38:58.664Z,100.00
2022-10-11T22:41:28.521Z,100.00
2022-10-11T22:43:58.726Z,100.00
2022-10-11T22:46:28.612Z,100.00
2022-10-11T22:48:55.729Z,100.00
2022-10-11T22:51:22.638Z,100.00
2022-10-11T22:53:49.489Z,100.00
2022-10-11T22:56:16.691Z,100.00
2022-10-11T22:58:43.551Z,100.00
2022-10-11T23:01:12.097Z,100.00
2022-10-11T23:03:39.334Z,100.00
2022-10-11T23:06:06.527Z,100.00
2022-10-11T23:08:33.404Z,100.00
2022-10-11T23:11:07.215Z,100.00
2022-10-11T23:13:34.586Z,100.00
2022-10-11T23:16:09.408Z,100.00
2022-10-11T23:18:36.425Z,100.00
2022-10-11T23:21:04.349Z,100.00
2022-10-11T23:23:31.196Z,100.00
2022-10-11T23:26:05.130Z,100.00
2022-10-11T23:28:32.342Z,100.00
2022-10-11T23:30:59.338Z,100.00
2022-10-11T23:33:27.886Z,100.00
2022-10-11T23:35:55.075Z,100.00
2022-10-11T23:38:21.949Z,100.00
2022-10-11T23:40:48.809Z,100.00
2022-10-11T23:43:15.917Z,100.00
2022-10-11T23:45:43.830Z,100.00
2022-10-11T23:48:10.771Z,100.00
2022-10-11T23:50:37.865Z,100.00
2022-10-11T23:53:04.865Z,100.00
2022-10-11T23:55:31.730Z,100.00
2022-10-11T23:57:58.840Z,100.00
